createdAt,value
2017-03-20T00:00:36.573Z,21.47
2017-03-20T00:01:46.327Z,21.52
2017-03-20T00:02:55.622Z,21.49
2017-03-20T00:04:05.540Z,21.52
2017-03-20T00:05:15.774Z,21.43
2017-03-20T00:06:25.685Z,21.53
2017-03-20T00:07:35.752Z,21.47
2017-03-20T00:08:45.661Z,21.47
2017-03-20T00:09:55.576Z,21.54
2017-03-20T00:11:04.887Z,21.43
2017-03-20T00:12:14.198Z,21.52
2017-03-20T00:13:24.570Z,21.44
2017-03-20T00:14:34.490Z,21.53
2017-03-20T00:15:44.082Z,21.53
2017-03-20T00:16:53.668Z,21.44
2017-03-20T00:18:03.270Z,21.56
2017-03-20T00:19:13.744Z,21.52
2017-03-20T00:20:23.971Z,21.5
2017-03-20T00:21:33.891Z,21.62
2017-03-20T00:22:44.132Z,21.44
2017-03-20T00:23:54.414Z,21.54
2017-03-20T00:25:04.496Z,21.5
2017-03-20T00:26:14.408Z,21.47
2017-03-20T00:27:24.022Z,21.53
2017-03-20T00:28:34.241Z,21.46
2017-03-20T00:29:43.551Z,21.54
2017-03-20T00:30:53.316Z,21.5
2017-03-20T00:32:02.916Z,21.53
2017-03-20T00:33:12.823Z,21.54
2017-03-20T00:34:23.074Z,21.52
2017-03-20T00:35:32.992Z,21.53
2017-03-20T00:36:42.447Z,21.54
2017-03-20T00:37:51.747Z,21.54
2017-03-20T00:39:01.382Z,21.53
2017-03-20T00:40:10.976Z,21.56
2017-03-20T00:41:20.581Z,21.49
2017-03-20T00:42:30.950Z,21.59
2017-03-20T00:43:40.552Z,21.56
2017-03-20T00:44:50.779Z,21.56
2017-03-20T00:46:00.689Z,21.54
2017-03-20T00:47:10.281Z,21.59
2017-03-20T00:48:20.340Z,21.54
2017-03-20T00:49:29.951Z,21.58
2017-03-20T00:50:40.178Z,21.58
2017-03-20T00:51:49.499Z,21.56
2017-03-20T00:52:59.717Z,21.56
2017-03-20T00:54:10.085Z,21.58
2017-03-20T00:55:19.695Z,21.53
2017-03-20T00:56:29.614Z,21.56
2017-03-20T00:57:39.536Z,21.53
2017-03-20T00:58:49.153Z,21.56
2017-03-20T00:59:59.227Z,21.54
2017-03-20T01:01:09.162Z,21.56
2017-03-20T01:02:19.085Z,21.5
2017-03-20T01:03:28.394Z,21.58
2017-03-20T01:04:37.998Z,21.54
2017-03-20T01:05:47.752Z,21.56
2017-03-20T01:06:57.046Z,21.56
2017-03-20T01:08:07.258Z,21.58
2017-03-20T01:09:16.857Z,21.54
2017-03-20T01:10:27.078Z,21.59
2017-03-20T01:11:37.125Z,21.59
2017-03-20T01:12:47.336Z,21.49
2017-03-20T01:13:57.252Z,21.56
2017-03-20T01:15:06.556Z,21.52
2017-03-20T01:16:16.469Z,21.56
2017-03-20T01:17:26.539Z,21.58
2017-03-20T01:18:36.774Z,21.59
2017-03-20T01:19:46.687Z,21.54
2017-03-20T01:20:56.625Z,21.58
2017-03-20T01:22:06.522Z,21.54
2017-03-20T01:23:16.997Z,21.54
2017-03-20T01:24:26.608Z,21.58
2017-03-20T01:25:36.238Z,21.56
2017-03-20T01:26:46.444Z,21.58
2017-03-20T01:27:56.667Z,21.52
2017-03-20T01:29:06.439Z,21.56
2017-03-20T01:30:16.344Z,21.56
2017-03-20T01:31:26.249Z,21.53
2017-03-20T01:32:36.465Z,21.56
2017-03-20T01:33:46.377Z,21.56
2017-03-20T01:34:56.446Z,21.54
2017-03-20T01:36:06.350Z,21.56
2017-03-20T01:37:16.258Z,21.54
2017-03-20T01:38:25.874Z,21.5
2017-03-20T01:39:35.483Z,21.52
2017-03-20T01:40:45.851Z,21.53
2017-03-20T01:41:55.755Z,21.56
2017-03-20T01:43:05.661Z,21.56
2017-03-20T01:44:15.881Z,21.5
2017-03-20T01:45:25.809Z,21.49
2017-03-20T01:46:35.250Z,21.53
2017-03-20T01:47:45.459Z,21.52
2017-03-20T01:48:55.062Z,21.54
2017-03-20T01:50:04.973Z,21.43
2017-03-20T01:51:15.549Z,21.56
2017-03-20T01:52:25.614Z,21.5
2017-03-20T01:53:35.221Z,21.5
2017-03-20T01:54:44.826Z,21.54
2017-03-20T01:55:54.742Z,21.62
2017-03-20T01:57:04.647Z,21.52
2017-03-20T01:58:14.711Z,21.46
2017-03-20T01:59:24.328Z,21.44
2017-03-20T02:00:33.930Z,21.49
2017-03-20T02:01:43.540Z,21.47
2017-03-20T02:02:53.443Z,21.53
2017-03-20T02:04:02.909Z,21.54
2017-03-20T02:05:12.538Z,21.54
2017-03-20T02:06:22.753Z,21.53
2017-03-20T02:07:32.671Z,21.52
2017-03-20T02:08:42.323Z,21.59
2017-03-20T02:09:52.077Z,21.47
2017-03-20T02:11:01.386Z,21.52
2017-03-20T02:12:11.022Z,21.54
2017-03-20T02:13:21.240Z,21.47
2017-03-20T02:14:31.160Z,21.58
2017-03-20T02:15:41.233Z,21.54
2017-03-20T02:16:51.142Z,21.44
2017-03-20T02:18:01.057Z,21.56
2017-03-20T02:19:11.268Z,21.46
2017-03-20T02:20:20.565Z,21.49
2017-03-20T02:21:30.612Z,21.56
2017-03-20T02:22:39.602Z,21.58
2017-03-20T02:23:49.223Z,21.56
2017-03-20T02:24:59.129Z,21.54
2017-03-20T02:26:09.383Z,21.46
2017-03-20T02:27:19.132Z,21.52
2017-03-20T02:28:28.739Z,21.53
2017-03-20T02:29:38.957Z,21.52
2017-03-20T02:30:49.179Z,21.59
2017-03-20T02:31:58.785Z,21.49
2017-03-20T02:33:08.868Z,21.46
2017-03-20T02:34:19.094Z,21.58
2017-03-20T02:35:29.010Z,21.43
2017-03-20T02:36:39.257Z,21.56
2017-03-20T02:37:49.173Z,21.43
2017-03-20T02:38:58.926Z,21.49
2017-03-20T02:40:08.527Z,21.47
2017-03-20T02:41:18.747Z,21.53
2017-03-20T02:42:28.969Z,21.46
2017-03-20T02:43:38.320Z,21.43
2017-03-20T02:44:48.084Z,21.52
2017-03-20T02:45:58.002Z,21.52
2017-03-20T02:47:07.603Z,21.49
2017-03-20T02:48:17.516Z,21.43
2017-03-20T02:49:27.431Z,21.49
2017-03-20T02:50:37.794Z,21.49
2017-03-20T02:51:47.086Z,21.42
2017-03-20T02:52:56.693Z,21.44
2017-03-20T02:54:06.605Z,21.5
2017-03-20T02:55:16.830Z,21.5
2017-03-20T02:56:26.685Z,21.52
2017-03-20T02:57:36.609Z,21.49
2017-03-20T02:58:46.229Z,21.47
2017-03-20T02:59:55.837Z,21.49
2017-03-20T03:01:05.447Z,21.49
2017-03-20T03:02:15.192Z,21.49
2017-03-20T03:03:25.444Z,21.37
2017-03-20T03:04:35.057Z,21.52
2017-03-20T03:05:44.648Z,21.47
2017-03-20T03:06:53.937Z,21.47
2017-03-20T03:08:03.999Z,21.52
2017-03-20T03:09:14.229Z,21.37
2017-03-20T03:10:24.149Z,21.43
2017-03-20T03:11:34.081Z,21.34
2017-03-20T03:12:44.198Z,21.47
2017-03-20T03:13:53.941Z,21.47
2017-03-20T03:15:03.545Z,21.37
2017-03-20T03:16:13.450Z,21.46
2017-03-20T03:17:22.451Z,21.52
2017-03-20T03:18:32.369Z,21.47
2017-03-20T03:19:42.424Z,21.37
2017-03-20T03:20:51.727Z,21.37
2017-03-20T03:22:01.342Z,21.47
2017-03-20T03:23:10.951Z,21.46
2017-03-20T03:24:20.871Z,21.44
2017-03-20T03:25:30.928Z,21.4
2017-03-20T03:26:41.142Z,21.53
2017-03-20T03:27:50.442Z,21.43
2017-03-20T03:29:00.356Z,21.52
2017-03-20T03:30:09.954Z,21.44
2017-03-20T03:31:20.036Z,21.4
2017-03-20T03:32:29.649Z,21.52
2017-03-20T03:33:39.582Z,21.5
2017-03-20T03:34:49.797Z,21.52
2017-03-20T03:35:59.423Z,21.4
2017-03-20T03:37:09.479Z,21.49
2017-03-20T03:38:19.698Z,21.43
2017-03-20T03:39:29.614Z,21.52
2017-03-20T03:40:39.513Z,21.5
2017-03-20T03:41:49.418Z,21.5
2017-03-20T03:42:59.475Z,21.44
2017-03-20T03:44:10.068Z,21.44
2017-03-20T03:45:19.981Z,21.53
2017-03-20T03:46:30.197Z,21.47
2017-03-20T03:47:39.859Z,21.52
2017-03-20T03:48:49.943Z,21.5
2017-03-20T03:49:59.863Z,21.5
2017-03-20T03:51:10.083Z,21.49
2017-03-20T03:52:19.697Z,21.53
2017-03-20T03:53:29.305Z,21.52
2017-03-20T03:54:39.685Z,21.53
2017-03-20T03:55:49.602Z,21.52
2017-03-20T03:56:59.518Z,21.43
2017-03-20T03:58:09.123Z,21.49
2017-03-20T03:59:18.729Z,21.47
2017-03-20T04:00:28.783Z,21.52
2017-03-20T04:01:38.386Z,21.53
2017-03-20T04:02:48.298Z,21.49
2017-03-20T04:03:58.211Z,21.53
2017-03-20T04:05:07.805Z,21.44
2017-03-20T04:06:17.875Z,21.5
2017-03-20T04:07:27.477Z,21.44
2017-03-20T04:08:37.087Z,21.5
2017-03-20T04:09:46.996Z,21.47
2017-03-20T04:10:56.909Z,21.44
2017-03-20T04:12:06.012Z,21.47
2017-03-20T04:13:15.921Z,21.4
2017-03-20T04:14:25.828Z,21.47
2017-03-20T04:15:35.427Z,21.42
2017-03-20T04:16:45.653Z,21.44
2017-03-20T04:17:55.052Z,21.49
2017-03-20T04:19:04.352Z,21.47
2017-03-20T04:20:14.575Z,21.47
2017-03-20T04:21:24.167Z,21.52
2017-03-20T04:22:34.387Z,21.52
2017-03-20T04:23:44.404Z,21.44
2017-03-20T04:24:54.360Z,21.4
2017-03-20T04:26:03.975Z,21.49
2017-03-20T04:27:14.189Z,21.4
2017-03-20T04:28:24.135Z,21.49
2017-03-20T04:29:34.604Z,21.43
2017-03-20T04:30:43.610Z,21.46
2017-03-20T04:31:53.520Z,21.49
2017-03-20T04:33:02.503Z,21.47
2017-03-20T04:34:12.107Z,21.47
2017-03-20T04:35:21.974Z,21.37
2017-03-20T04:36:31.585Z,21.5
2017-03-20T04:37:41.808Z,21.5
2017-03-20T04:38:51.721Z,21.49
2017-03-20T04:40:01.338Z,21.49
2017-03-20T04:41:11.456Z,21.47
2017-03-20T04:42:21.666Z,21.46
2017-03-20T04:43:31.889Z,21.4
2017-03-20T04:44:41.799Z,21.4
2017-03-20T04:45:51.717Z,21.52
2017-03-20T04:47:01.160Z,21.46
2017-03-20T04:48:10.777Z,21.37
2017-03-20T04:49:20.689Z,21.44
2017-03-20T04:50:30.597Z,21.5
2017-03-20T04:51:40.502Z,21.5
2017-03-20T04:52:50.263Z,21.47
2017-03-20T04:54:00.171Z,21.5
2017-03-20T04:55:09.769Z,21.49
2017-03-20T04:56:20.351Z,21.37
2017-03-20T04:57:30.590Z,21.43
2017-03-20T04:58:40.345Z,21.54
2017-03-20T04:59:50.249Z,21.4
2017-03-20T05:01:00.188Z,21.49
2017-03-20T05:02:09.798Z,21.49
2017-03-20T05:03:19.816Z,21.44
2017-03-20T05:04:29.880Z,21.47
2017-03-20T05:05:39.477Z,21.44
2017-03-20T05:06:48.780Z,21.44
2017-03-20T05:07:58.696Z,21.49
2017-03-20T05:09:08.921Z,21.49
2017-03-20T05:10:18.372Z,21.54
2017-03-20T05:11:27.974Z,21.5
2017-03-20T05:12:37.896Z,21.49
2017-03-20T05:13:47.814Z,21.54
2017-03-20T05:14:58.030Z,21.5
2017-03-20T05:16:07.477Z,21.42
2017-03-20T05:17:17.683Z,21.54
2017-03-20T05:18:27.897Z,21.53
2017-03-20T05:19:36.883Z,21.49
2017-03-20T05:20:47.092Z,21.47
2017-03-20T05:21:57.146Z,21.5
2017-03-20T05:23:07.363Z,21.5
2017-03-20T05:24:17.287Z,21.52
2017-03-20T05:25:26.908Z,21.47
2017-03-20T05:26:36.506Z,21.53
2017-03-20T05:27:46.871Z,21.44
2017-03-20T05:28:57.107Z,21.49
2017-03-20T05:30:07.026Z,21.5
2017-03-20T05:31:17.245Z,21.44
2017-03-20T05:32:27.206Z,21.54
2017-03-20T05:33:36.976Z,21.54
2017-03-20T05:34:46.899Z,21.56
2017-03-20T05:35:56.835Z,21.49
2017-03-20T05:37:06.778Z,21.58
2017-03-20T05:38:16.395Z,21.59
2017-03-20T05:39:26.216Z,21.58
2017-03-20T05:40:36.143Z,21.62
2017-03-20T05:41:45.805Z,21.64
2017-03-20T05:42:55.731Z,21.69
2017-03-20T05:44:04.740Z,21.74
2017-03-20T05:45:14.517Z,21.86
2017-03-20T05:46:24.425Z,21.84
2017-03-20T05:47:34.364Z,21.98
2017-03-20T05:48:44.295Z,21.96
2017-03-20T05:49:54.540Z,21.96
2017-03-20T05:51:04.309Z,22.02
2017-03-20T05:52:14.226Z,22.14
2017-03-20T05:53:24.139Z,22.09
2017-03-20T05:54:34.064Z,22.22
2017-03-20T05:55:43.985Z,22.21
2017-03-20T05:56:54.049Z,22.25
2017-03-20T05:58:03.357Z,22.33
2017-03-20T05:59:13.590Z,22.27
2017-03-20T06:00:23.828Z,22.28
2017-03-20T06:01:33.455Z,22.4
2017-03-20T06:02:43.218Z,22.4
2017-03-20T06:03:52.244Z,22.45
2017-03-20T06:05:01.576Z,22.51
2017-03-20T06:06:11.484Z,22.54
2017-03-20T06:07:21.416Z,22.57
2017-03-20T06:08:31.502Z,22.58
2017-03-20T06:09:41.749Z,22.6
2017-03-20T06:10:51.973Z,22.54
2017-03-20T06:12:02.202Z,22.65
2017-03-20T06:13:12.099Z,22.67
2017-03-20T06:14:22.173Z,22.58
2017-03-20T06:15:32.391Z,22.64
2017-03-20T06:16:42.286Z,22.68
2017-03-20T06:17:51.883Z,22.73
2017-03-20T06:19:01.491Z,22.79
2017-03-20T06:20:11.819Z,22.75
2017-03-20T06:21:22.029Z,22.85
2017-03-20T06:22:31.945Z,22.85
2017-03-20T06:23:42.156Z,22.9
2017-03-20T06:24:52.070Z,22.97
2017-03-20T06:26:01.781Z,23
2017-03-20T06:27:12.069Z,23.1
2017-03-20T06:28:21.689Z,23.02
2017-03-20T06:29:31.608Z,23.13
2017-03-20T06:30:41.829Z,23.13
2017-03-20T06:31:52.160Z,23.16
2017-03-20T06:33:02.101Z,23.25
2017-03-20T06:34:12.013Z,23.2
2017-03-20T06:35:21.628Z,23.19
2017-03-20T06:36:31.542Z,23.28
2017-03-20T06:37:41.569Z,23.27
2017-03-20T06:38:51.493Z,23.31
2017-03-20T06:40:01.107Z,23.4
2017-03-20T06:41:10.406Z,23.43
2017-03-20T06:42:20.322Z,23.4
2017-03-20T06:43:29.772Z,23.43
2017-03-20T06:44:39.731Z,23.48
2017-03-20T06:45:49.956Z,23.5
2017-03-20T06:47:00.248Z,23.61
2017-03-20T06:48:09.850Z,23.65
2017-03-20T06:49:20.245Z,23.66
2017-03-20T06:50:30.158Z,23.63
2017-03-20T06:51:39.760Z,23.69
2017-03-20T06:52:49.673Z,23.69
2017-03-20T06:53:59.276Z,23.72
2017-03-20T06:55:09.714Z,23.69
2017-03-20T06:56:19.012Z,23.72
2017-03-20T06:57:29.220Z,23.85
2017-03-20T06:58:38.508Z,23.79
2017-03-20T06:59:48.428Z,23.84
2017-03-20T07:00:58.287Z,23.75
2017-03-20T07:02:08.188Z,23.76
2017-03-20T07:03:18.411Z,23.87
2017-03-20T07:04:28.356Z,23.83
2017-03-20T07:05:37.701Z,23.84
2017-03-20T07:06:48.077Z,23.94
2017-03-20T07:07:57.989Z,23.88
2017-03-20T07:09:08.217Z,23.87
2017-03-20T07:10:18.442Z,23.84
2017-03-20T07:11:27.737Z,23.88
2017-03-20T07:12:38.100Z,23.78
2017-03-20T07:13:48.333Z,23.78
2017-03-20T07:14:57.979Z,23.78
2017-03-20T07:16:07.890Z,23.78
2017-03-20T07:17:17.821Z,23.79
2017-03-20T07:18:27.278Z,23.83
2017-03-20T07:19:37.195Z,23.84
2017-03-20T07:20:46.804Z,23.72
2017-03-20T07:21:57.022Z,23.75
2017-03-20T07:23:06.921Z,23.68
2017-03-20T07:24:17.300Z,23.75
2017-03-20T07:25:27.215Z,23.68
2017-03-20T07:26:37.128Z,23.61
2017-03-20T07:27:47.047Z,23.66
2017-03-20T07:28:56.947Z,23.63
2017-03-20T07:30:06.698Z,23.55
2017-03-20T07:31:16.606Z,23.53
2017-03-20T07:32:26.529Z,23.6
2017-03-20T07:33:36.454Z,23.55
2017-03-20T07:34:46.681Z,23.51
2017-03-20T07:35:56.892Z,23.47
2017-03-20T07:37:06.803Z,23.55
2017-03-20T07:38:16.416Z,23.48
2017-03-20T07:39:26.645Z,23.48
2017-03-20T07:40:36.869Z,23.46
2017-03-20T07:41:46.779Z,23.43
2017-03-20T07:42:56.996Z,23.47
2017-03-20T07:44:07.224Z,23.32
2017-03-20T07:45:16.857Z,23.35
2017-03-20T07:46:26.763Z,23.42
2017-03-20T07:47:36.618Z,23.39
2017-03-20T07:48:46.226Z,23.42
2017-03-20T07:49:56.462Z,23.27
2017-03-20T07:51:06.676Z,23.2
2017-03-20T07:52:16.267Z,23.16
2017-03-20T07:53:26.142Z,23.16
2017-03-20T07:57:08.130Z,23.13
2017-03-20T07:58:18.042Z,23.15
2017-03-20T07:59:28.566Z,23.17
2017-03-20T08:03:11.164Z,23.15
2017-03-20T08:04:21.685Z,23.23
2017-03-20T08:05:31.324Z,23.2
2017-03-20T08:06:41.022Z,23.22
2017-03-20T08:11:35.622Z,23.16
2017-03-20T08:12:45.561Z,23.23
2017-03-20T08:13:55.804Z,23.28
2017-03-20T08:15:05.443Z,23.16
2017-03-20T08:16:15.352Z,23.15
2017-03-20T08:19:57.957Z,23.25
2017-03-20T08:21:07.893Z,23.23
2017-03-20T08:22:17.930Z,23.22
2017-03-20T08:23:28.178Z,23.28
2017-03-20T08:24:37.811Z,23.27
2017-03-20T08:25:48.040Z,23.28
2017-03-20T08:26:56.835Z,23.27
2017-03-20T08:28:07.060Z,23.28
2017-03-20T08:29:16.369Z,23.22
2017-03-20T08:30:26.302Z,23.23
2017-03-20T08:31:36.261Z,23.28
2017-03-20T08:32:45.996Z,23.27
2017-03-20T08:33:55.961Z,23.27
2017-03-20T08:35:06.231Z,23.32
2017-03-20T08:38:48.662Z,23.39
2017-03-20T08:39:58.298Z,23.36
2017-03-20T08:41:08.225Z,23.38
2017-03-20T08:42:18.136Z,23.36
2017-03-20T08:43:27.758Z,23.33
2017-03-20T08:47:10.154Z,23.47
2017-03-20T08:48:20.088Z,23.39
2017-03-20T08:49:29.711Z,23.43
2017-03-20T08:50:39.324Z,23.39
2017-03-20T08:51:49.248Z,23.46
2017-03-20T08:52:59.600Z,23.42
2017-03-20T08:54:09.244Z,23.43
2017-03-20T08:55:19.187Z,23.35
2017-03-20T08:56:29.114Z,23.39
2017-03-20T08:57:38.730Z,23.39
2017-03-20T08:58:48.923Z,23.36
2017-03-20T08:59:58.863Z,23.36
2017-03-20T09:01:08.799Z,23.36
2017-03-20T09:02:18.151Z,23.4
2017-03-20T09:03:28.096Z,23.33
2017-03-20T09:07:10.996Z,23.43
2017-03-20T09:08:20.933Z,23.35
2017-03-20T09:09:30.242Z,23.38
2017-03-20T09:10:40.176Z,23.4
2017-03-20T09:11:50.120Z,23.4
2017-03-20T09:15:32.578Z,23.35
2017-03-20T09:16:42.509Z,23.32
2017-03-20T09:17:52.738Z,23.43
2017-03-20T09:19:02.703Z,23.42
2017-03-20T09:22:45.155Z,23.43
2017-03-20T09:23:55.096Z,23.39
2017-03-20T09:25:05.345Z,23.38
2017-03-20T09:26:15.282Z,23.38
2017-03-20T09:30:00.525Z,23.43
2017-03-20T09:31:10.297Z,23.43
2017-03-20T09:32:20.223Z,23.43
2017-03-20T09:36:02.857Z,23.36
2017-03-20T09:37:12.165Z,23.35
2017-03-20T09:38:22.088Z,23.36
2017-03-20T09:39:31.447Z,23.38
2017-03-20T09:40:41.368Z,23.35
2017-03-20T09:41:51.465Z,23.32
2017-03-20T09:43:01.694Z,23.33
2017-03-20T09:44:11.635Z,23.35
2017-03-20T09:45:21.592Z,23.36
2017-03-20T09:46:31.530Z,23.39
2017-03-20T09:47:41.917Z,23.39
2017-03-20T09:48:51.850Z,23.36
2017-03-20T09:50:01.772Z,23.46
2017-03-20T09:51:11.383Z,23.47
2017-03-20T09:52:21.313Z,23.48
2017-03-20T09:53:31.388Z,23.46
2017-03-20T09:54:41.608Z,23.51
2017-03-20T09:55:51.522Z,23.5
2017-03-20T09:57:01.745Z,23.51
2017-03-20T10:00:43.881Z,23.51
2017-03-20T10:01:54.106Z,23.55
2017-03-20T10:03:04.032Z,23.57
2017-03-20T10:06:46.800Z,23.6
2017-03-20T10:07:57.063Z,23.58
2017-03-20T10:11:39.048Z,23.53
2017-03-20T10:12:49.122Z,23.55
2017-03-20T10:13:58.747Z,23.61
2017-03-20T10:15:08.985Z,23.54
2017-03-20T10:16:19.217Z,23.63
2017-03-20T10:17:29.586Z,23.6
2017-03-20T10:18:39.506Z,23.68
2017-03-20T10:22:21.494Z,23.7
2017-03-20T10:26:03.881Z,23.55
2017-03-20T10:27:13.815Z,23.63
2017-03-20T10:28:23.730Z,23.58
2017-03-20T10:29:33.732Z,23.54
2017-03-20T10:30:43.666Z,23.63
2017-03-20T10:31:53.592Z,23.53
2017-03-20T10:35:37.493Z,23.58
2017-03-20T10:40:31.584Z,23.6
2017-03-20T10:41:40.914Z,23.54
2017-03-20T10:42:51.372Z,23.5
2017-03-20T10:44:00.699Z,23.54
2017-03-20T10:45:10.311Z,23.48
2017-03-20T10:46:20.340Z,23.53
2017-03-20T10:47:30.251Z,23.53
2017-03-20T10:48:39.553Z,23.55
2017-03-20T10:49:48.872Z,23.53
2017-03-20T10:50:59.102Z,23.53
2017-03-20T10:52:09.184Z,23.51
2017-03-20T10:55:51.172Z,23.54
2017-03-20T10:57:00.488Z,23.55
2017-03-20T10:58:10.266Z,23.47
2017-03-20T10:59:19.583Z,23.54
2017-03-20T11:00:28.589Z,23.55
2017-03-20T11:01:38.506Z,23.53
2017-03-20T11:05:20.935Z,23.51
2017-03-20T11:09:03.229Z,23.53
2017-03-20T11:10:13.149Z,23.63
2017-03-20T11:11:22.916Z,23.51
2017-03-20T11:12:32.854Z,23.54
2017-03-20T11:13:42.469Z,23.53
2017-03-20T11:14:52.088Z,23.54
2017-03-20T11:16:02.148Z,23.53
2017-03-20T11:19:46.510Z,23.55
2017-03-20T11:20:56.740Z,23.58
2017-03-20T11:22:06.825Z,23.53
2017-03-20T11:23:17.067Z,23.54
2017-03-20T11:24:26.703Z,23.58
2017-03-20T11:28:09.152Z,23.53
2017-03-20T11:29:18.477Z,23.5
2017-03-20T11:30:28.406Z,23.46
2017-03-20T11:31:38.040Z,23.47
2017-03-20T11:32:47.969Z,23.46
2017-03-20T11:36:30.405Z,23.36
2017-03-20T11:37:40.326Z,23.35
2017-03-20T11:38:49.940Z,23.4
2017-03-20T11:39:58.950Z,23.36
2017-03-20T11:41:08.577Z,23.4
2017-03-20T11:42:18.975Z,23.33
2017-03-20T11:43:28.903Z,23.39
2017-03-20T11:47:10.900Z,23.38
2017-03-20T11:48:20.675Z,23.27
2017-03-20T11:49:30.929Z,23.32
2017-03-20T11:50:40.552Z,23.2
2017-03-20T11:51:49.862Z,23.23
2017-03-20T11:52:59.642Z,23.39
2017-03-20T11:54:09.561Z,23.28
2017-03-20T11:55:19.481Z,23.23
2017-03-20T11:56:28.498Z,23.22
2017-03-20T11:57:37.824Z,23.33
2017-03-20T11:58:47.602Z,23.39
2017-03-20T11:59:57.232Z,23.27
2017-03-20T12:01:06.542Z,23.31
2017-03-20T12:02:16.469Z,23.32
2017-03-20T12:03:26.392Z,23.22
2017-03-20T12:04:36.162Z,23.28
2017-03-20T12:05:45.773Z,23.35
2017-03-20T12:06:55.090Z,23.23
2017-03-20T12:08:04.714Z,23.33
2017-03-20T12:09:14.653Z,23.27
2017-03-20T12:10:24.741Z,23.27
2017-03-20T12:11:34.669Z,23.31
2017-03-20T12:12:44.640Z,23.27
2017-03-20T12:13:54.261Z,23.25
2017-03-20T12:15:04.198Z,23.27
2017-03-20T12:16:14.271Z,23.22
2017-03-20T12:17:23.893Z,23.27
2017-03-20T12:18:34.156Z,23.27
2017-03-20T12:19:43.799Z,23.28
2017-03-20T12:20:54.029Z,23.36
2017-03-20T12:22:03.503Z,23.38
2017-03-20T12:23:13.750Z,23.35
2017-03-20T12:24:23.074Z,23.39
2017-03-20T12:25:33.017Z,23.39
2017-03-20T12:26:42.938Z,23.35
2017-03-20T12:27:52.981Z,23.28
2017-03-20T12:29:03.213Z,23.25
2017-03-20T12:30:13.450Z,23.25
2017-03-20T12:31:23.062Z,23.42
2017-03-20T12:32:33.002Z,23.39
2017-03-20T12:33:43.473Z,23.25
2017-03-20T12:34:53.392Z,23.39
2017-03-20T12:36:02.704Z,23.42
2017-03-20T12:37:12.316Z,23.31
2017-03-20T12:38:21.940Z,23.39
2017-03-20T12:39:32.287Z,23.42
2017-03-20T12:40:42.519Z,23.25
2017-03-20T12:41:52.146Z,23.23
2017-03-20T12:43:01.779Z,23.38
2017-03-20T12:44:11.722Z,23.39
2017-03-20T12:45:21.137Z,23.38
2017-03-20T12:46:31.091Z,23.38
2017-03-20T12:47:41.315Z,23.43
2017-03-20T12:48:50.941Z,23.38
2017-03-20T12:50:00.868Z,23.25
2017-03-20T12:51:09.970Z,23.36
2017-03-20T12:52:19.579Z,23.25
2017-03-20T12:53:29.194Z,23.28
2017-03-20T12:54:39.440Z,23.38
2017-03-20T12:55:49.675Z,23.32
2017-03-20T12:56:59.749Z,23.31
2017-03-20T12:58:09.683Z,23.27
2017-03-20T12:59:19.299Z,23.27
2017-03-20T13:00:29.232Z,23.25
2017-03-20T13:01:38.847Z,23.23
2017-03-20T13:02:48.904Z,23.28
2017-03-20T13:03:58.216Z,23.23
2017-03-20T13:05:08.443Z,23.25
2017-03-20T13:06:18.659Z,23.22
2017-03-20T13:07:28.580Z,23.27
2017-03-20T13:08:38.051Z,23.31
2017-03-20T13:09:47.973Z,23.31
2017-03-20T13:10:57.894Z,23.27
2017-03-20T13:12:08.131Z,23.27
2017-03-20T13:13:18.050Z,23.23
2017-03-20T13:14:27.509Z,23.27
2017-03-20T13:15:37.424Z,23.23
2017-03-20T13:16:47.352Z,23.23
2017-03-20T13:17:57.264Z,23.32
2017-03-20T13:19:07.511Z,23.33
2017-03-20T13:20:17.585Z,23.32
2017-03-20T13:21:27.191Z,23.27
2017-03-20T13:22:37.107Z,23.25
2017-03-20T13:23:47.330Z,23.28
2017-03-20T13:24:57.280Z,23.32
2017-03-20T13:26:07.365Z,23.33
2017-03-20T13:27:16.972Z,23.23
2017-03-20T13:28:26.891Z,23.28
2017-03-20T13:29:36.800Z,23.25
2017-03-20T13:30:46.419Z,23.23
2017-03-20T13:31:55.867Z,23.25
2017-03-20T13:33:05.489Z,23.32
2017-03-20T13:34:14.820Z,23.27
2017-03-20T13:35:24.755Z,23.27
2017-03-20T13:36:34.077Z,23.27
2017-03-20T13:37:44.191Z,23.27
2017-03-20T13:38:54.111Z,23.31
2017-03-20T13:40:04.349Z,23.36
2017-03-20T13:41:13.338Z,23.28
2017-03-20T13:42:23.270Z,23.23
2017-03-20T13:43:33.029Z,23.23
2017-03-20T13:44:42.957Z,23.2
2017-03-20T13:45:52.620Z,23.27
2017-03-20T13:47:01.934Z,23.25
2017-03-20T13:48:11.570Z,23.28
2017-03-20T13:49:21.660Z,23.16
2017-03-20T13:50:31.272Z,23.27
2017-03-20T13:51:40.577Z,23.23
2017-03-20T13:52:50.835Z,23.25
2017-03-20T13:53:59.846Z,23.25
2017-03-20T13:55:09.301Z,23.28
2017-03-20T13:56:19.217Z,23.2
2017-03-20T13:57:28.564Z,23.23
2017-03-20T13:58:38.791Z,23.31
2017-03-20T13:59:48.407Z,23.15
2017-03-20T14:00:58.815Z,23.28
2017-03-20T14:02:08.426Z,23.25
2017-03-20T14:03:18.044Z,23.27
2017-03-20T14:04:27.663Z,23.25
2017-03-20T14:05:37.273Z,23.23
2017-03-20T14:06:47.352Z,23.23
2017-03-20T14:07:56.705Z,23.2
2017-03-20T14:09:06.335Z,23.28
2017-03-20T14:10:16.570Z,23.25
2017-03-20T14:11:26.171Z,23.17
2017-03-20T14:12:35.938Z,23.22
2017-03-20T14:13:45.858Z,23.2
2017-03-20T14:14:56.118Z,23.15
2017-03-20T14:16:06.345Z,23.15
2017-03-20T14:17:16.574Z,23.16
2017-03-20T14:18:26.645Z,23.2
2017-03-20T14:19:36.581Z,23.1
2017-03-20T14:20:46.189Z,23.17
2017-03-20T14:21:56.111Z,23.1
2017-03-20T14:23:06.116Z,23.13
2017-03-20T14:24:16.224Z,23.15
2017-03-20T14:25:26.149Z,23.13
2017-03-20T14:26:35.751Z,23.16
2017-03-20T14:27:45.975Z,23.15
2017-03-20T14:28:56.206Z,23.05
2017-03-20T14:30:06.544Z,23.07
2017-03-20T14:31:16.785Z,23.16
2017-03-20T14:32:27.013Z,23.05
2017-03-20T14:33:36.641Z,23.07
2017-03-20T14:34:46.566Z,23.12
2017-03-20T14:35:56.579Z,23.07
2017-03-20T14:37:06.518Z,23.02
2017-03-20T14:38:16.759Z,23.07
2017-03-20T14:39:27.005Z,23.05
2017-03-20T14:40:36.624Z,23.01
2017-03-20T14:41:46.345Z,23.05
2017-03-20T14:42:56.268Z,23.09
2017-03-20T14:44:05.964Z,22.97
2017-03-20T14:45:16.200Z,23.09
2017-03-20T14:46:26.120Z,23.05
2017-03-20T14:47:35.832Z,23.07
2017-03-20T14:48:45.451Z,23.09
2017-03-20T14:49:56.049Z,23.04
2017-03-20T14:51:05.362Z,23.04
2017-03-20T14:52:15.275Z,23.01
2017-03-20T14:53:25.594Z,23
2017-03-20T14:54:34.911Z,23.04
2017-03-20T14:55:44.852Z,23.04
2017-03-20T14:56:54.784Z,23.09
2017-03-20T14:58:04.754Z,23.01
2017-03-20T14:59:14.572Z,23.07
2017-03-20T15:00:23.877Z,23.04
2017-03-20T15:01:33.799Z,23.05
2017-03-20T15:02:43.721Z,23.07
2017-03-20T15:03:53.346Z,23.1
2017-03-20T15:05:03.737Z,23.1
2017-03-20T15:06:13.365Z,23.05
2017-03-20T15:07:23.611Z,23.05
2017-03-20T15:08:33.246Z,22.98
2017-03-20T15:09:42.899Z,23.07
2017-03-20T15:10:52.998Z,23.1
2017-03-20T15:12:02.991Z,23.05
2017-03-20T15:13:12.930Z,23.07
2017-03-20T15:14:22.876Z,23.05
2017-03-20T15:15:32.504Z,23.05
2017-03-20T15:16:41.648Z,23.05
2017-03-20T15:17:51.271Z,22.98
2017-03-20T15:19:01.207Z,23.05
2017-03-20T15:20:11.456Z,23.01
2017-03-20T15:21:21.073Z,23
2017-03-20T15:22:31.138Z,23.01
2017-03-20T15:23:41.372Z,23.01
2017-03-20T15:24:51.314Z,23.05
2017-03-20T15:26:00.614Z,23.02
2017-03-20T15:27:10.226Z,23.01
2017-03-20T15:28:20.294Z,23.07
2017-03-20T15:29:30.257Z,23.04
2017-03-20T15:30:40.497Z,23.01
2017-03-20T15:31:50.109Z,23.05
2017-03-20T15:33:00.037Z,22.98
2017-03-20T15:34:10.127Z,23
2017-03-20T15:35:20.066Z,23
2017-03-20T15:36:30.298Z,23.02
2017-03-20T15:37:40.552Z,23.01
2017-03-20T15:38:50.493Z,22.97
2017-03-20T15:40:00.570Z,22.94
2017-03-20T15:41:10.821Z,22.92
2017-03-20T15:42:21.051Z,22.95
2017-03-20T15:43:30.353Z,22.97
2017-03-20T15:44:40.272Z,22.91
2017-03-20T15:45:50.349Z,22.92
2017-03-20T15:47:00.565Z,22.9
2017-03-20T15:48:10.488Z,22.9
2017-03-20T15:49:20.422Z,22.88
2017-03-20T15:50:30.034Z,22.83
2017-03-20T15:51:40.426Z,22.85
2017-03-20T15:52:50.653Z,22.9
2017-03-20T15:54:00.573Z,22.85
2017-03-20T15:55:10.193Z,22.9
2017-03-20T15:56:19.560Z,22.86
2017-03-20T15:57:29.381Z,22.82
2017-03-20T15:58:39.688Z,22.82
2017-03-20T15:59:49.948Z,22.83
2017-03-20T16:00:59.636Z,22.76
2017-03-20T16:02:08.969Z,22.85
2017-03-20T16:03:19.372Z,22.8
2017-03-20T16:04:29.324Z,22.76
2017-03-20T16:05:39.248Z,22.77
2017-03-20T16:06:49.469Z,22.76
2017-03-20T16:07:59.709Z,22.73
2017-03-20T16:09:09.812Z,22.75